Springfield Branson National Airport
KSGF : now visible

Airfield :











YOU CAN JOIN US ON...

 
LOGIN :

Register | Disclaimer

   EN    FR    IT 

 









Legend :    VFR   Marginal VFR   IFR   Intensive IFR   Very Intensive IFR
Visi :
Ceiling :
>= 8 km
>= 3000ft
5 to 8 km
1000 to 3000 ft
1500m to 5 km
500 to 1000 ft
800 to 1500m
200 to 500 ft
< 800m
< 200 ft
Symbols :   Thunderstorms  Fog  Heavy snow  Heavy precipitations  Wind > 20 kt






- Airport Elevation : 1268 ft
- IATA code : SGF


KSGF - Springfield Branson National

CURRENT METAR :
  • 172052Z 16010KT 10SM OVC009 01/00 A3014 RMK AO2 FZRAE33 CIG 008V013 SLP215 P0003 60020 I1001 I3/// T00060000 56026

EXPIRED METARs :
  • 172039Z 18011G20KT 9SM OVC010 00/M01 A3014 RMK AO2 FZRAE33 CIG 008V013 P0002 I1001 T00001006
  • 171952Z 18010G18KT 5SM -FZRA BR OVC011 01/00 A3016 RMK AO2 PK WND 14037/1911 WSHFT 1918 SLP223 P0013 I1005 T00060000
  • 171947Z 18009G20KT 3SM -FZRA BR BKN011 OVC030 00/M01 A3016 RMK AO2 PK WND 14037/1911 WSHFT 1918 P0012 I1005
  • 171922Z 16018G36KT 3SM -FZRA BR OVC016 00/M01 A3015 RMK AO2 PK WND 14037/1911 PRESRR P0004 I1004 T00001011
  • 171904Z 14024G36KT 2 1/2SM FZRA BR OVC016 00/M01 A3012 RMK AO2 PK WND 15036/1856 P0003 I1002 T00001011
  • 171846Z 15024G37KT 4SM FZRA BR OVC016 00/M02 A3014 RMK AO2 PK WND 15037/1841 FZRAEMMB34 P0004 I1/// $
  • 171840Z 14025G36KT 4SM -FZRA BR 00/M02 A3015 RMK AO2 PK WND 13036/1833 FZRAEMMB34 P0004 I1/// T00001017 $

TAF KSGF
Valid from the 17 at 18:00 until the 18 at 18:00 UTC


171737Z 1718/1818 14021G36KT 6SM -RA BR OVC035 WS020/16055KT
TEMPO 1718/1720 5SM FZRA BR OVC025
FM172100 15020G32KT 4SM RA BR OVC008 WS020/19055KT
FM180800 21019G31KT 6SM -RA BR OVC010 WS020/23060KT
FM181200 28019G27KT P6SM BKN011



MET'MAP, your aeronautical weather chart ! - Copyright ORBIFLY December 2007 - Disclaimer

ORBIFLY MET'MAP TEAM :

Programming & Development : Alexandra Zaïnal
Concept & original design : Baudouin d'Aumeries
Assistance for programming : Marc-Olivier Méhu
Technical & hardware support : Manuel Goepfert

Contact : metmap@orbifly.com




SOURCES & CREDITS :

   NOAA       Earth
Advisory